sensor_id;sensor_type;location;lat;lon;timestamp;P1;durP1;ratioP1;P2;durP2;ratioP2
74904;SDS011;63465;50.862;6.220;2022-10-15T00:00:35;5.20;;;3.87;;
74904;SDS011;63465;50.862;6.220;2022-10-15T00:03:01;4.63;;;4.23;;
74904;SDS011;63465;50.862;6.220;2022-10-15T00:05:28;4.13;;;3.83;;
74904;SDS011;63465;50.862;6.220;2022-10-15T00:07:55;6.83;;;4.73;;
74904;SDS011;63465;50.862;6.220;2022-10-15T00:10:22;5.90;;;4.20;;
74904;SDS011;63465;50.862;6.220;2022-10-15T00:12:48;4.17;;;3.80;;
74904;SDS011;63465;50.862;6.220;2022-10-15T00:15:15;4.60;;;4.20;;
74904;SDS011;63465;50.862;6.220;2022-10-15T00:17:43;4.90;;;4.00;;
74904;SDS011;63465;50.862;6.220;2022-10-15T00:20:10;5.80;;;4.10;;
74904;SDS011;63465;50.862;6.220;2022-10-15T00:22:37;7.97;;;3.70;;
74904;SDS011;63465;50.862;6.220;2022-10-15T00:25:04;4.17;;;3.80;;
74904;SDS011;63465;50.862;6.220;2022-10-15T00:27:32;4.13;;;3.80;;
74904;SDS011;63465;50.862;6.220;2022-10-15T00:29:59;4.80;;;3.80;;
74904;SDS011;63465;50.862;6.220;2022-10-15T00:32:27;10.27;;;3.90;;
74904;SDS011;63465;50.862;6.220;2022-10-15T00:34:55;4.63;;;4.23;;
74904;SDS011;63465;50.862;6.220;2022-10-15T00:37:22;4.43;;;4.03;;
74904;SDS011;63465;50.862;6.220;2022-10-15T00:39:49;4.13;;;3.73;;
74904;SDS011;63465;50.862;6.220;2022-10-15T00:42:16;5.00;;;3.73;;
74904;SDS011;63465;50.862;6.220;2022-10-15T00:44:50;5.37;;;3.73;;
74904;SDS011;63465;50.862;6.220;2022-10-15T00:47:21;4.10;;;3.70;;
74904;SDS011;63465;50.862;6.220;2022-10-15T00:49:54;4.27;;;3.87;;
74904;SDS011;63465;50.862;6.220;2022-10-15T00:52:29;4.33;;;3.93;;
74904;SDS011;63465;50.862;6.220;2022-10-15T00:55:04;4.57;;;3.80;;
74904;SDS011;63465;50.862;6.220;2022-10-15T00:57:34;7.47;;;3.37;;
74904;SDS011;63465;50.862;6.220;2022-10-15T01:00:04;4.87;;;4.00;;
74904;SDS011;63465;50.862;6.220;2022-10-15T01:02:33;4.33;;;3.67;;
74904;SDS011;63465;50.862;6.220;2022-10-15T01:05:01;4.70;;;4.30;;
74904;SDS011;63465;50.862;6.220;2022-10-15T01:07:28;8.03;;;3.90;;
74904;SDS011;63465;50.862;6.220;2022-10-15T01:09:54;4.30;;;3.90;;
74904;SDS011;63465;50.862;6.220;2022-10-15T01:12:24;4.10;;;3.70;;
74904;SDS011;63465;50.862;6.220;2022-10-15T01:15:00;4.63;;;4.13;;
74904;SDS011;63465;50.862;6.220;2022-10-15T01:17:35;4.27;;;3.87;;
74904;SDS011;63465;50.862;6.220;2022-10-15T01:20:26;4.30;;;3.90;;
74904;SDS011;63465;50.862;6.220;2022-10-15T01:23:13;6.93;;;4.37;;
74904;SDS011;63465;50.862;6.220;2022-10-15T01:26:00;5.27;;;3.97;;
74904;SDS011;63465;50.862;6.220;2022-10-15T01:28:41;10.70;;;4.53;;
74904;SDS011;63465;50.862;6.220;2022-10-15T01:31:22;4.70;;;4.30;;
74904;SDS011;63465;50.862;6.220;2022-10-15T01:33:54;6.40;;;5.10;;
74904;SDS011;63465;50.862;6.220;2022-10-15T01:36:30;5.43;;;4.93;;
74904;SDS011;63465;50.862;6.220;2022-10-15T01:39:01;5.27;;;4.60;;
74904;SDS011;63465;50.862;6.220;2022-10-15T01:41:34;8.43;;;5.20;;
74904;SDS011;63465;50.862;6.220;2022-10-15T01:44:06;7.47;;;5.67;;
74904;SDS011;63465;50.862;6.220;2022-10-15T01:46:55;8.10;;;5.07;;
74904;SDS011;63465;50.862;6.220;2022-10-15T01:49:27;18.10;;;5.40;;
74904;SDS011;63465;50.862;6.220;2022-10-15T01:52:01;8.00;;;5.63;;
74904;SDS011;63465;50.862;6.220;2022-10-15T01:54:33;12.90;;;5.77;;
74904;SDS011;63465;50.862;6.220;2022-10-15T01:57:02;6.37;;;5.50;;
74904;SDS011;63465;50.862;6.220;2022-10-15T01:59:31;8.20;;;6.50;;
74904;SDS011;63465;50.862;6.220;2022-10-15T02:02:00;7.03;;;5.63;;
74904;SDS011;63465;50.862;6.220;2022-10-15T02:04:27;9.97;;;6.27;;
74904;SDS011;63465;50.862;6.220;2022-10-15T02:06:57;7.03;;;6.30;;
74904;SDS011;63465;50.862;6.220;2022-10-15T02:09:30;15.43;;;6.80;;
74904;SDS011;63465;50.862;6.220;2022-10-15T02:12:06;6.60;;;5.50;;
74904;SDS011;63465;50.862;6.220;2022-10-15T02:14:43;7.80;;;6.40;;
74904;SDS011;63465;50.862;6.220;2022-10-15T02:17:18;9.67;;;6.40;;
74904;SDS011;63465;50.862;6.220;2022-10-15T02:19:55;8.53;;;6.73;;
74904;SDS011;63465;50.862;6.220;2022-10-15T02:22:27;9.70;;;6.07;;
74904;SDS011;63465;50.862;6.220;2022-10-15T02:25:01;8.10;;;6.53;;
74904;SDS011;63465;50.862;6.220;2022-10-15T02:27:31;9.30;;;6.47;;
74904;SDS011;63465;50.862;6.220;2022-10-15T02:29:59;9.90;;;7.27;;
74904;SDS011;63465;50.862;6.220;2022-10-15T02:32:29;11.03;;;7.13;;
74904;SDS011;63465;50.862;6.220;2022-10-15T02:34:58;11.70;;;8.53;;
74904;SDS011;63465;50.862;6.220;2022-10-15T02:37:27;10.33;;;8.37;;
74904;SDS011;63465;50.862;6.220;2022-10-15T02:39:56;11.23;;;9.03;;
74904;SDS011;63465;50.862;6.220;2022-10-15T02:42:23;16.80;;;9.90;;
74904;SDS011;63465;50.862;6.220;2022-10-15T02:44:50;15.27;;;9.53;;
74904;SDS011;63465;50.862;6.220;2022-10-15T02:47:17;20.23;;;11.57;;
74904;SDS011;63465;50.862;6.220;2022-10-15T02:49:45;29.60;;;14.23;;
74904;SDS011;63465;50.862;6.220;2022-10-15T02:52:11;24.50;;;13.57;;
74904;SDS011;63465;50.862;6.220;2022-10-15T02:54:39;28.83;;;14.97;;
74904;SDS011;63465;50.862;6.220;2022-10-15T02:57:06;30.60;;;16.10;;
74904;SDS011;63465;50.862;6.220;2022-10-15T02:59:33;28.07;;;17.10;;
74904;SDS011;63465;50.862;6.220;2022-10-15T03:02:00;37.33;;;20.57;;
74904;SDS011;63465;50.862;6.220;2022-10-15T03:04:27;37.73;;;20.47;;
74904;SDS011;63465;50.862;6.220;2022-10-15T03:06:55;35.67;;;20.90;;
74904;SDS011;63465;50.862;6.220;2022-10-15T03:09:22;43.10;;;22.27;;
74904;SDS011;63465;50.862;6.220;2022-10-15T03:11:49;45.27;;;24.37;;
74904;SDS011;63465;50.862;6.220;2022-10-15T03:14:15;49.53;;;26.10;;
74904;SDS011;63465;50.862;6.220;2022-10-15T03:16:42;52.13;;;26.20;;
74904;SDS011;63465;50.862;6.220;2022-10-15T03:19:10;61.40;;;29.70;;
74904;SDS011;63465;50.862;6.220;2022-10-15T03:21:37;68.63;;;33.53;;
74904;SDS011;63465;50.862;6.220;2022-10-15T03:24:10;68.43;;;31.30;;
74904;SDS011;63465;50.862;6.220;2022-10-15T03:26:37;74.80;;;36.73;;
74904;SDS011;63465;50.862;6.220;2022-10-15T03:29:04;86.13;;;36.87;;
74904;SDS011;63465;50.862;6.220;2022-10-15T03:31:41;72.93;;;36.00;;
74904;SDS011;63465;50.862;6.220;2022-10-15T03:34:08;70.70;;;35.30;;
74904;SDS011;63465;50.862;6.220;2022-10-15T03:36:35;79.63;;;35.77;;
74904;SDS011;63465;50.862;6.220;2022-10-15T03:39:05;71.30;;;34.73;;
74904;SDS011;63465;50.862;6.220;2022-10-15T03:41:35;74.77;;;34.07;;
74904;SDS011;63465;50.862;6.220;2022-10-15T03:44:02;75.87;;;33.83;;
74904;SDS011;63465;50.862;6.220;2022-10-15T03:46:30;78.43;;;34.87;;
74904;SDS011;63465;50.862;6.220;2022-10-15T03:48:59;76.50;;;33.67;;
74904;SDS011;63465;50.862;6.220;2022-10-15T03:51:26;74.20;;;34.43;;
74904;SDS011;63465;50.862;6.220;2022-10-15T03:54:00;72.63;;;32.53;;
74904;SDS011;63465;50.862;6.220;2022-10-15T03:56:26;67.50;;;30.93;;
74904;SDS011;63465;50.862;6.220;2022-10-15T03:59:07;66.60;;;30.57;;
74904;SDS011;63465;50.862;6.220;2022-10-15T04:01:34;53.03;;;26.70;;
74904;SDS011;63465;50.862;6.220;2022-10-15T04:04:01;52.47;;;24.40;;
74904;SDS011;63465;50.862;6.220;2022-10-15T04:06:28;45.47;;;23.20;;
74904;SDS011;63465;50.862;6.220;2022-10-15T04:09:01;57.80;;;24.03;;
74904;SDS011;63465;50.862;6.220;2022-10-15T04:11:27;53.70;;;21.53;;
74904;SDS011;63465;50.862;6.220;2022-10-15T04:14:00;56.40;;;23.30;;
74904;SDS011;63465;50.862;6.220;2022-10-15T04:16:30;47.43;;;22.17;;
74904;SDS011;63465;50.862;6.220;2022-10-15T04:18:59;48.20;;;22.87;;
74904;SDS011;63465;50.862;6.220;2022-10-15T04:21:25;44.23;;;21.53;;
74904;SDS011;63465;50.862;6.220;2022-10-15T04:23:57;43.37;;;20.67;;
74904;SDS011;63465;50.862;6.220;2022-10-15T04:26:29;47.57;;;20.23;;
74904;SDS011;63465;50.862;6.220;2022-10-15T04:28:58;41.60;;;20.23;;
74904;SDS011;63465;50.862;6.220;2022-10-15T04:31:26;34.20;;;18.23;;
74904;SDS011;63465;50.862;6.220;2022-10-15T04:33:54;35.27;;;18.70;;
74904;SDS011;63465;50.862;6.220;2022-10-15T04:36:21;34.90;;;18.77;;
74904;SDS011;63465;50.862;6.220;2022-10-15T04:38:52;35.93;;;19.07;;
74904;SDS011;63465;50.862;6.220;2022-10-15T04:41:32;35.20;;;18.73;;
74904;SDS011;63465;50.862;6.220;2022-10-15T04:44:03;40.63;;;18.17;;
74904;SDS011;63465;50.862;6.220;2022-10-15T04:46:31;39.37;;;19.47;;
74904;SDS011;63465;50.862;6.220;2022-10-15T04:49:04;36.40;;;19.20;;
74904;SDS011;63465;50.862;6.220;2022-10-15T04:51:31;28.97;;;15.73;;
74904;SDS011;63465;50.862;6.220;2022-10-15T04:54:27;33.20;;;16.30;;
74904;SDS011;63465;50.862;6.220;2022-10-15T04:56:57;31.17;;;17.00;;
74904;SDS011;63465;50.862;6.220;2022-10-15T04:59:24;33.20;;;16.97;;
74904;SDS011;63465;50.862;6.220;2022-10-15T05:02:15;38.10;;;19.23;;
74904;SDS011;63465;50.862;6.220;2022-10-15T05:04:45;39.53;;;18.20;;
74904;SDS011;63465;50.862;6.220;2022-10-15T05:07:12;38.57;;;17.00;;
74904;SDS011;63465;50.862;6.220;2022-10-15T05:09:39;42.10;;;19.50;;
74904;SDS011;63465;50.862;6.220;2022-10-15T05:12:06;45.77;;;18.37;;
74904;SDS011;63465;50.862;6.220;2022-10-15T05:14:33;36.73;;;17.37;;
74904;SDS011;63465;50.862;6.220;2022-10-15T05:17:05;38.13;;;18.07;;
74904;SDS011;63465;50.862;6.220;2022-10-15T05:19:37;43.97;;;18.03;;
74904;SDS011;63465;50.862;6.220;2022-10-15T05:22:08;47.37;;;17.47;;
74904;SDS011;63465;50.862;6.220;2022-10-15T05:24:41;46.43;;;16.97;;
74904;SDS011;63465;50.862;6.220;2022-10-15T05:27:23;33.93;;;17.13;;
74904;SDS011;63465;50.862;6.220;2022-10-15T05:29:50;39.37;;;15.90;;
74904;SDS011;63465;50.862;6.220;2022-10-15T05:32:16;34.37;;;15.37;;
74904;SDS011;63465;50.862;6.220;2022-10-15T05:34:43;33.10;;;16.10;;
74904;SDS011;63465;50.862;6.220;2022-10-15T05:37:15;33.07;;;15.23;;
74904;SDS011;63465;50.862;6.220;2022-10-15T05:39:41;31.63;;;14.30;;
74904;SDS011;63465;50.862;6.220;2022-10-15T05:42:09;30.90;;;14.27;;
74904;SDS011;63465;50.862;6.220;2022-10-15T05:44:40;32.40;;;14.13;;
74904;SDS011;63465;50.862;6.220;2022-10-15T05:47:06;28.83;;;13.27;;
74904;SDS011;63465;50.862;6.220;2022-10-15T05:49:36;26.73;;;13.50;;
74904;SDS011;63465;50.862;6.220;2022-10-15T05:52:10;23.07;;;12.70;;
74904;SDS011;63465;50.862;6.220;2022-10-15T05:54:57;21.30;;;11.17;;
74904;SDS011;63465;50.862;6.220;2022-10-15T05:57:23;24.63;;;11.93;;
74904;SDS011;63465;50.862;6.220;2022-10-15T05:59:50;21.57;;;11.53;;
74904;SDS011;63465;50.862;6.220;2022-10-15T06:02:17;25.97;;;11.83;;
74904;SDS011;63465;50.862;6.220;2022-10-15T06:04:43;18.63;;;9.50;;
74904;SDS011;63465;50.862;6.220;2022-10-15T06:07:12;23.07;;;10.23;;
74904;SDS011;63465;50.862;6.220;2022-10-15T06:09:39;17.37;;;10.53;;
74904;SDS011;63465;50.862;6.220;2022-10-15T06:12:07;21.13;;;10.63;;
74904;SDS011;63465;50.862;6.220;2022-10-15T06:14:34;18.93;;;9.77;;
74904;SDS011;63465;50.862;6.220;2022-10-15T06:17:05;18.50;;;9.00;;
74904;SDS011;63465;50.862;6.220;2022-10-15T06:19:32;15.40;;;8.40;;
74904;SDS011;63465;50.862;6.220;2022-10-15T06:21:58;20.40;;;8.20;;
74904;SDS011;63465;50.862;6.220;2022-10-15T06:24:26;12.63;;;6.87;;
74904;SDS011;63465;50.862;6.220;2022-10-15T06:26:53;13.87;;;7.27;;
74904;SDS011;63465;50.862;6.220;2022-10-15T06:29:21;14.23;;;8.07;;
74904;SDS011;63465;50.862;6.220;2022-10-15T06:31:54;13.70;;;7.37;;
74904;SDS011;63465;50.862;6.220;2022-10-15T06:34:21;12.40;;;6.93;;
74904;SDS011;63465;50.862;6.220;2022-10-15T06:36:48;13.03;;;7.30;;
74904;SDS011;63465;50.862;6.220;2022-10-15T06:39:14;12.33;;;7.17;;
74904;SDS011;63465;50.862;6.220;2022-10-15T06:41:43;10.70;;;6.67;;
74904;SDS011;63465;50.862;6.220;2022-10-15T06:44:10;14.93;;;7.70;;
74904;SDS011;63465;50.862;6.220;2022-10-15T06:46:38;11.77;;;6.90;;
74904;SDS011;63465;50.862;6.220;2022-10-15T06:49:04;13.93;;;6.17;;
74904;SDS011;63465;50.862;6.220;2022-10-15T06:51:33;11.50;;;6.93;;
74904;SDS011;63465;50.862;6.220;2022-10-15T06:54:01;12.37;;;6.70;;
74904;SDS011;63465;50.862;6.220;2022-10-15T06:56:28;10.53;;;6.17;;
74904;SDS011;63465;50.862;6.220;2022-10-15T06:58:55;13.30;;;7.30;;
74904;SDS011;63465;50.862;6.220;2022-10-15T07:01:21;20.23;;;10.70;;
74904;SDS011;63465;50.862;6.220;2022-10-15T07:03:49;15.87;;;8.80;;
74904;SDS011;63465;50.862;6.220;2022-10-15T07:06:16;13.37;;;6.50;;
74904;SDS011;63465;50.862;6.220;2022-10-15T07:08:43;14.37;;;6.63;;
74904;SDS011;63465;50.862;6.220;2022-10-15T07:11:10;14.43;;;6.70;;
74904;SDS011;63465;50.862;6.220;2022-10-15T07:13:37;11.27;;;6.60;;
74904;SDS011;63465;50.862;6.220;2022-10-15T07:16:06;9.93;;;6.47;;
74904;SDS011;63465;50.862;6.220;2022-10-15T07:18:35;10.00;;;6.60;;
74904;SDS011;63465;50.862;6.220;2022-10-15T07:21:03;12.60;;;6.00;;
74904;SDS011;63465;50.862;6.220;2022-10-15T07:23:31;10.23;;;6.10;;
74904;SDS011;63465;50.862;6.220;2022-10-15T07:25:58;11.63;;;6.73;;
74904;SDS011;63465;50.862;6.220;2022-10-15T07:28:26;9.23;;;5.93;;
74904;SDS011;63465;50.862;6.220;2022-10-15T07:30:52;11.47;;;5.70;;
74904;SDS011;63465;50.862;6.220;2022-10-15T07:33:19;8.50;;;5.63;;
74904;SDS011;63465;50.862;6.220;2022-10-15T07:35:57;9.20;;;5.70;;
74904;SDS011;63465;50.862;6.220;2022-10-15T07:38:25;10.30;;;5.90;;
74904;SDS011;63465;50.862;6.220;2022-10-15T07:40:55;9.40;;;5.50;;
74904;SDS011;63465;50.862;6.220;2022-10-15T07:43:24;9.00;;;5.50;;
74904;SDS011;63465;50.862;6.220;2022-10-15T07:45:52;8.17;;;5.37;;
74904;SDS011;63465;50.862;6.220;2022-10-15T07:48:19;7.93;;;4.70;;
74904;SDS011;63465;50.862;6.220;2022-10-15T07:50:46;8.17;;;5.97;;
74904;SDS011;63465;50.862;6.220;2022-10-15T07:53:13;6.83;;;5.10;;
74904;SDS011;63465;50.862;6.220;2022-10-15T07:55:41;15.40;;;5.13;;
74904;SDS011;63465;50.862;6.220;2022-10-15T07:58:07;7.73;;;4.83;;
74904;SDS011;63465;50.862;6.220;2022-10-15T08:00:34;5.30;;;4.47;;
74904;SDS011;63465;50.862;6.220;2022-10-15T08:03:01;6.40;;;4.00;;
74904;SDS011;63465;50.862;6.220;2022-10-15T08:05:27;5.43;;;4.07;;
74904;SDS011;63465;50.862;6.220;2022-10-15T08:07:54;5.73;;;4.43;;
74904;SDS011;63465;50.862;6.220;2022-10-15T08:10:21;6.80;;;4.00;;
74904;SDS011;63465;50.862;6.220;2022-10-15T08:12:49;5.50;;;3.27;;
74904;SDS011;63465;50.862;6.220;2022-10-15T08:15:15;4.90;;;3.53;;
74904;SDS011;63465;50.862;6.220;2022-10-15T08:17:42;3.50;;;2.93;;
74904;SDS011;63465;50.862;6.220;2022-10-15T08:20:09;3.33;;;3.03;;
74904;SDS011;63465;50.862;6.220;2022-10-15T08:22:37;4.07;;;2.80;;
74904;SDS011;63465;50.862;6.220;2022-10-15T08:25:03;2.70;;;2.50;;
74904;SDS011;63465;50.862;6.220;2022-10-15T08:27:30;3.00;;;2.40;;
74904;SDS011;63465;50.862;6.220;2022-10-15T08:30:00;4.13;;;2.17;;
74904;SDS011;63465;50.862;6.220;2022-10-15T08:32:27;2.43;;;1.97;;
74904;SDS011;63465;50.862;6.220;2022-10-15T08:34:54;11.17;;;10.13;;
74904;SDS011;63465;50.862;6.220;2022-10-15T08:37:20;6.37;;;2.93;;
74904;SDS011;63465;50.862;6.220;2022-10-15T08:39:47;3.03;;;1.90;;
74904;SDS011;63465;50.862;6.220;2022-10-15T08:42:15;2.93;;;1.67;;
74904;SDS011;63465;50.862;6.220;2022-10-15T08:44:45;4.27;;;1.70;;
74904;SDS011;63465;50.862;6.220;2022-10-15T08:47:21;2.63;;;2.13;;
74904;SDS011;63465;50.862;6.220;2022-10-15T08:49:54;4.30;;;1.50;;
74904;SDS011;63465;50.862;6.220;2022-10-15T08:52:24;1.20;;;1.20;;
74904;SDS011;63465;50.862;6.220;2022-10-15T08:54:57;2.50;;;1.93;;
74904;SDS011;63465;50.862;6.220;2022-10-15T08:57:31;1.97;;;1.33;;
74904;SDS011;63465;50.862;6.220;2022-10-15T09:00:07;1.80;;;1.70;;
74904;SDS011;63465;50.862;6.220;2022-10-15T09:02:43;2.90;;;1.73;;
74904;SDS011;63465;50.862;6.220;2022-10-15T09:05:23;1.20;;;1.13;;
74904;SDS011;63465;50.862;6.220;2022-10-15T09:07:56;1.03;;;1.03;;
74904;SDS011;63465;50.862;6.220;2022-10-15T09:10:30;1.60;;;1.00;;
74904;SDS011;63465;50.862;6.220;2022-10-15T09:13:07;0.87;;;0.87;;
74904;SDS011;63465;50.862;6.220;2022-10-15T09:15:40;0.60;;;0.60;;
74904;SDS011;63465;50.862;6.220;2022-10-15T09:18:17;0.80;;;0.80;;
74904;SDS011;63465;50.862;6.220;2022-10-15T09:20:48;0.80;;;0.80;;
74904;SDS011;63465;50.862;6.220;2022-10-15T09:23:16;0.70;;;0.70;;
74904;SDS011;63465;50.862;6.220;2022-10-15T09:25:48;0.80;;;0.60;;
74904;SDS011;63465;50.862;6.220;2022-10-15T09:28:19;0.73;;;0.73;;
74904;SDS011;63465;50.862;6.220;2022-10-15T09:30:52;0.80;;;0.80;;
74904;SDS011;63465;50.862;6.220;2022-10-15T09:33:26;1.00;;;0.90;;
74904;SDS011;63465;50.862;6.220;2022-10-15T09:36:05;0.70;;;0.70;;
74904;SDS011;63465;50.862;6.220;2022-10-15T09:38:40;0.90;;;0.80;;
74904;SDS011;63465;50.862;6.220;2022-10-15T09:41:16;0.63;;;0.63;;
74904;SDS011;63465;50.862;6.220;2022-10-15T09:43:51;1.27;;;0.70;;
74904;SDS011;63465;50.862;6.220;2022-10-15T09:46:24;0.80;;;0.80;;
74904;SDS011;63465;50.862;6.220;2022-10-15T09:48:54;1.10;;;0.80;;
74904;SDS011;63465;50.862;6.220;2022-10-15T09:51:29;0.80;;;0.80;;
74904;SDS011;63465;50.862;6.220;2022-10-15T09:54:01;0.70;;;0.70;;
74904;SDS011;63465;50.862;6.220;2022-10-15T09:56:34;0.80;;;0.80;;
74904;SDS011;63465;50.862;6.220;2022-10-15T09:59:03;0.73;;;0.60;;
74904;SDS011;63465;50.862;6.220;2022-10-15T10:01:30;1.20;;;0.53;;
74904;SDS011;63465;50.862;6.220;2022-10-15T10:04:10;1.73;;;0.60;;
74904;SDS011;63465;50.862;6.220;2022-10-15T10:06:43;0.80;;;0.70;;
74904;SDS011;63465;50.862;6.220;2022-10-15T10:09:13;0.60;;;0.60;;
74904;SDS011;63465;50.862;6.220;2022-10-15T10:11:47;1.23;;;0.60;;
74904;SDS011;63465;50.862;6.220;2022-10-15T10:14:21;0.60;;;0.60;;
74904;SDS011;63465;50.862;6.220;2022-10-15T10:17:05;0.60;;;0.60;;
74904;SDS011;63465;50.862;6.220;2022-10-15T10:19:39;0.70;;;0.67;;
74904;SDS011;63465;50.862;6.220;2022-10-15T10:22:11;0.70;;;0.70;;
74904;SDS011;63465;50.862;6.220;2022-10-15T10:24:39;0.70;;;0.70;;
74904;SDS011;63465;50.862;6.220;2022-10-15T10:27:15;0.60;;;0.60;;
74904;SDS011;63465;50.862;6.220;2022-10-15T10:29:47;14.30;;;0.80;;
74904;SDS011;63465;50.862;6.220;2022-10-15T10:32:18;0.60;;;0.60;;
74904;SDS011;63465;50.862;6.220;2022-10-15T10:34:48;0.60;;;0.60;;
74904;SDS011;63465;50.862;6.220;2022-10-15T10:37:16;0.60;;;0.57;;
74904;SDS011;63465;50.862;6.220;2022-10-15T10:39:42;0.50;;;0.50;;
74904;SDS011;63465;50.862;6.220;2022-10-15T10:42:22;0.60;;;0.60;;
74904;SDS011;63465;50.862;6.220;2022-10-15T10:45:05;1.43;;;0.50;;
74904;SDS011;63465;50.862;6.220;2022-10-15T10:47:40;0.60;;;0.60;;
74904;SDS011;63465;50.862;6.220;2022-10-15T10:50:10;0.77;;;0.60;;
74904;SDS011;63465;50.862;6.220;2022-10-15T10:52:52;1.60;;;0.90;;
74904;SDS011;63465;50.862;6.220;2022-10-15T10:55:20;0.60;;;0.50;;
74904;SDS011;63465;50.862;6.220;2022-10-15T10:57:49;0.63;;;0.63;;
74904;SDS011;63465;50.862;6.220;2022-10-15T11:00:20;0.60;;;0.50;;
74904;SDS011;63465;50.862;6.220;2022-10-15T11:02:50;0.93;;;0.80;;
74904;SDS011;63465;50.862;6.220;2022-10-15T11:05:26;1.17;;;0.60;;
74904;SDS011;63465;50.862;6.220;2022-10-15T11:07:56;0.70;;;0.70;;
74904;SDS011;63465;50.862;6.220;2022-10-15T11:10:31;0.50;;;0.50;;
74904;SDS011;63465;50.862;6.220;2022-10-15T11:13:08;3.53;;;0.60;;
74904;SDS011;63465;50.862;6.220;2022-10-15T11:15:48;0.70;;;0.70;;
74904;SDS011;63465;50.862;6.220;2022-10-15T11:18:28;2.63;;;0.60;;
74904;SDS011;63465;50.862;6.220;2022-10-15T11:21:07;3.90;;;0.60;;
74904;SDS011;63465;50.862;6.220;2022-10-15T11:23:54;1.53;;;0.80;;
74904;SDS011;63465;50.862;6.220;2022-10-15T11:26:40;0.60;;;0.60;;
74904;SDS011;63465;50.862;6.220;2022-10-15T11:29:23;0.60;;;0.60;;
74904;SDS011;63465;50.862;6.220;2022-10-15T11:32:02;1.10;;;0.80;;
74904;SDS011;63465;50.862;6.220;2022-10-15T11:34:40;0.90;;;0.50;;
74904;SDS011;63465;50.862;6.220;2022-10-15T11:37:24;0.80;;;0.80;;
74904;SDS011;63465;50.862;6.220;2022-10-15T11:40:12;0.50;;;0.50;;
74904;SDS011;63465;50.862;6.220;2022-10-15T11:42:45;0.60;;;0.60;;
74904;SDS011;63465;50.862;6.220;2022-10-15T11:45:26;1.73;;;0.60;;
74904;SDS011;63465;50.862;6.220;2022-10-15T11:48:15;0.50;;;0.50;;
74904;SDS011;63465;50.862;6.220;2022-10-15T11:50:48;1.00;;;0.70;;
74904;SDS011;63465;50.862;6.220;2022-10-15T11:53:29;0.60;;;0.60;;
74904;SDS011;63465;50.862;6.220;2022-10-15T11:56:09;2.50;;;0.60;;
74904;SDS011;63465;50.862;6.220;2022-10-15T11:58:40;0.60;;;0.60;;
74904;SDS011;63465;50.862;6.220;2022-10-15T12:01:11;0.60;;;0.57;;
74904;SDS011;63465;50.862;6.220;2022-10-15T12:03:53;0.60;;;0.60;;
74904;SDS011;63465;50.862;6.220;2022-10-15T12:06:23;0.60;;;0.60;;
74904;SDS011;63465;50.862;6.220;2022-10-15T12:08:55;0.90;;;0.70;;
74904;SDS011;63465;50.862;6.220;2022-10-15T12:11:26;1.30;;;0.70;;
74904;SDS011;63465;50.862;6.220;2022-10-15T12:14:04;0.60;;;0.60;;
74904;SDS011;63465;50.862;6.220;2022-10-15T12:16:45;0.73;;;0.73;;
74904;SDS011;63465;50.862;6.220;2022-10-15T12:19:21;1.67;;;1.57;;
74904;SDS011;63465;50.862;6.220;2022-10-15T12:22:02;0.70;;;0.70;;
74904;SDS011;63465;50.862;6.220;2022-10-15T12:24:49;0.70;;;0.70;;
74904;SDS011;63465;50.862;6.220;2022-10-15T12:27:21;0.90;;;0.90;;
74904;SDS011;63465;50.862;6.220;2022-10-15T12:29:50;1.47;;;0.70;;
74904;SDS011;63465;50.862;6.220;2022-10-15T12:32:36;1.00;;;1.00;;
74904;SDS011;63465;50.862;6.220;2022-10-15T12:35:05;1.07;;;0.97;;
74904;SDS011;63465;50.862;6.220;2022-10-15T12:37:45;1.67;;;1.57;;
74904;SDS011;63465;50.862;6.220;2022-10-15T12:40:24;0.93;;;0.90;;
74904;SDS011;63465;50.862;6.220;2022-10-15T12:42:54;0.70;;;0.70;;
74904;SDS011;63465;50.862;6.220;2022-10-15T12:45:29;0.93;;;0.93;;
74904;SDS011;63465;50.862;6.220;2022-10-15T12:50:46;1.17;;;1.07;;
74904;SDS011;63465;50.862;6.220;2022-10-15T12:56:22;1.60;;;1.47;;
74904;SDS011;63465;50.862;6.220;2022-10-15T12:58:50;2.27;;;0.90;;
74904;SDS011;63465;50.862;6.220;2022-10-15T13:01:27;0.80;;;0.80;;
74904;SDS011;63465;50.862;6.220;2022-10-15T13:03:58;1.13;;;1.13;;
74904;SDS011;63465;50.862;6.220;2022-10-15T13:06:29;1.00;;;1.00;;
74904;SDS011;63465;50.862;6.220;2022-10-15T13:09:02;0.90;;;0.90;;
74904;SDS011;63465;50.862;6.220;2022-10-15T13:11:34;1.17;;;1.07;;
74904;SDS011;63465;50.862;6.220;2022-10-15T13:14:11;1.30;;;1.30;;
74904;SDS011;63465;50.862;6.220;2022-10-15T13:16:46;1.37;;;1.10;;
74904;SDS011;63465;50.862;6.220;2022-10-15T13:19:18;1.10;;;0.90;;
74904;SDS011;63465;50.862;6.220;2022-10-15T13:21:46;1.00;;;1.00;;
74904;SDS011;63465;50.862;6.220;2022-10-15T13:24:15;5.33;;;1.10;;
74904;SDS011;63465;50.862;6.220;2022-10-15T13:26:45;1.17;;;0.83;;
74904;SDS011;63465;50.862;6.220;2022-10-15T13:29:14;1.17;;;1.07;;
74904;SDS011;63465;50.862;6.220;2022-10-15T13:31:41;0.97;;;0.97;;
74904;SDS011;63465;50.862;6.220;2022-10-15T13:34:12;1.37;;;1.00;;
74904;SDS011;63465;50.862;6.220;2022-10-15T13:36:46;0.80;;;0.80;;
74904;SDS011;63465;50.862;6.220;2022-10-15T13:39:23;1.13;;;0.83;;
74904;SDS011;63465;50.862;6.220;2022-10-15T13:42:07;1.23;;;1.07;;
74904;SDS011;63465;50.862;6.220;2022-10-15T13:44:38;1.67;;;1.57;;
74904;SDS011;63465;50.862;6.220;2022-10-15T13:47:18;1.83;;;1.63;;
74904;SDS011;63465;50.862;6.220;2022-10-15T13:49:49;0.83;;;0.83;;
74904;SDS011;63465;50.862;6.220;2022-10-15T13:52:16;1.40;;;1.27;;
74904;SDS011;63465;50.862;6.220;2022-10-15T13:54:43;1.13;;;1.13;;
74904;SDS011;63465;50.862;6.220;2022-10-15T13:57:13;1.97;;;1.20;;
74904;SDS011;63465;50.862;6.220;2022-10-15T13:59:42;1.30;;;1.20;;
74904;SDS011;63465;50.862;6.220;2022-10-15T14:02:11;2.83;;;1.10;;
74904;SDS011;63465;50.862;6.220;2022-10-15T14:04:39;1.43;;;1.03;;
74904;SDS011;63465;50.862;6.220;2022-10-15T14:07:17;1.97;;;1.23;;
74904;SDS011;63465;50.862;6.220;2022-10-15T14:09:47;0.70;;;0.70;;
74904;SDS011;63465;50.862;6.220;2022-10-15T14:12:16;2.50;;;1.10;;
74904;SDS011;63465;50.862;6.220;2022-10-15T14:14:43;0.90;;;0.90;;
74904;SDS011;63465;50.862;6.220;2022-10-15T14:17:20;0.90;;;0.90;;
74904;SDS011;63465;50.862;6.220;2022-10-15T14:19:50;0.90;;;0.90;;
74904;SDS011;63465;50.862;6.220;2022-10-15T14:22:21;1.10;;;1.10;;
74904;SDS011;63465;50.862;6.220;2022-10-15T14:24:49;10.23;;;2.70;;
74904;SDS011;63465;50.862;6.220;2022-10-15T14:27:20;9.83;;;2.97;;
74904;SDS011;63465;50.862;6.220;2022-10-15T14:29:48;11.07;;;5.63;;
74904;SDS011;63465;50.862;6.220;2022-10-15T14:32:21;1.27;;;1.20;;
74904;SDS011;63465;50.862;6.220;2022-10-15T14:34:50;1.93;;;1.10;;
74904;SDS011;63465;50.862;6.220;2022-10-15T14:37:29;1.60;;;1.23;;
74904;SDS011;63465;50.862;6.220;2022-10-15T14:40:09;1.70;;;1.60;;
74904;SDS011;63465;50.862;6.220;2022-10-15T14:42:41;3.03;;;1.50;;
74904;SDS011;63465;50.862;6.220;2022-10-15T14:45:10;1.83;;;1.70;;
74904;SDS011;63465;50.862;6.220;2022-10-15T14:47:37;2.70;;;1.70;;
74904;SDS011;63465;50.862;6.220;2022-10-15T14:50:05;1.43;;;1.30;;
74904;SDS011;63465;50.862;6.220;2022-10-15T14:52:34;3.60;;;1.97;;
74904;SDS011;63465;50.862;6.220;2022-10-15T14:55:03;2.90;;;1.43;;
74904;SDS011;63465;50.862;6.220;2022-10-15T15:00:16;1.80;;;1.70;;
74904;SDS011;63465;50.862;6.220;2022-10-15T15:02:49;1.83;;;1.60;;
74904;SDS011;63465;50.862;6.220;2022-10-15T15:05:18;4.17;;;1.97;;
74904;SDS011;63465;50.862;6.220;2022-10-15T15:07:47;2.10;;;1.80;;
74904;SDS011;63465;50.862;6.220;2022-10-15T15:10:14;3.33;;;1.60;;
74904;SDS011;63465;50.862;6.220;2022-10-15T15:12:41;5.37;;;1.80;;